Time;durP1;ratioP1;P1;durP2;ratioP2;P2;SDS_P1;SDS_P2;PMS_P1;PMS_P2;Temp;Humidity;BMP_temperature;BMP_pressure;BME280_temperature;BME280_humidity;BME280_pressure;Samples;Min_cycle;Max_cycle;Signal;HPM_P1;HPM_P2
2023/02/01 00:01:25;;;;;;;9.10;4.93;;;3.70;99.90;;;-141.84;81.25;18935.97;5054169;28;20603;-61
2023/02/01 00:03:54;;;;;;;6.50;4.17;;;3.70;99.90;;;-141.84;80.44;18897.34;5072603;28;20234;-59
2023/02/01 00:06:22;;;;;;;7.77;4.80;;;3.70;99.90;;;-141.84;80.44;18933.94;5049847;28;20607;-60
2023/02/01 00:08:53;;;;;;;7.40;4.23;;;3.70;99.90;;;-141.84;81.18;18915.63;5032910;28;20765;-60
2023/02/01 00:11:24;;;;;;;7.30;4.17;;;3.60;99.90;;;-141.84;81.15;18907.50;5032378;28;20227;-61
2023/02/01 00:13:53;;;;;;;8.87;4.30;;;3.60;99.90;;;-141.84;81.22;18952.22;5042357;28;20228;-61
2023/02/01 00:16:25;;;;;;;10.20;3.87;;;3.50;99.90;;;-141.84;81.20;18919.69;5051761;28;20597;-59
2023/02/01 00:19:00;;;;;;;11.07;3.77;;;3.50;99.90;;;-141.84;81.16;18917.66;5052359;28;20223;-61
2023/02/01 00:21:29;;;;;;;7.80;3.40;;;3.40;99.90;;;-141.84;80.68;18923.78;5052380;28;20222;-60
2023/02/01 00:23:59;;;;;;;10.07;3.53;;;3.40;99.90;;;-141.84;80.63;18915.63;5053169;28;20240;-60
2023/02/01 00:26:32;;;;;;;8.00;3.40;;;3.40;99.90;;;-141.84;79.48;18952.22;5052496;28;20228;-61
2023/02/01 00:29:01;;;;;;;8.73;3.57;;;3.50;99.90;;;-141.84;78.77;18929.88;5051462;28;20229;-61
2023/02/01 00:31:31;;;;;;;10.57;3.33;;;3.50;99.90;;;-141.84;78.29;18944.09;5033877;28;20243;-60
2023/02/01 00:33:59;;;;;;;5.60;3.40;;;3.60;99.90;;;-141.84;78.65;18929.88;5052399;28;20220;-59
2023/02/01 00:36:28;;;;;;;8.27;3.30;;;3.60;99.90;;;-141.84;78.25;18915.63;5052306;28;20249;-60
2023/02/01 00:38:56;;;;;;;11.90;3.17;;;3.60;99.90;;;-141.84;77.52;18984.72;5051063;28;20210;-59
2023/02/01 00:41:25;;;;;;;7.57;3.47;;;3.60;99.90;;;-141.84;77.06;18970.50;5032415;28;20310;-59
2023/02/01 00:43:53;;;;;;;7.00;2.93;;;3.70;99.90;;;-141.84;77.08;18968.47;5042524;28;20230;-60
2023/02/01 00:46:22;;;;;;;6.53;2.90;;;3.70;99.90;;;-141.84;77.09;18964.41;5051753;28;20258;-60
2023/02/01 00:48:52;;;;;;;7.57;3.73;;;3.70;99.90;;;-141.84;77.07;18958.31;5051928;28;20238;-61
2023/02/01 00:51:24;;;;;;;11.60;3.20;;;3.70;99.90;;;-141.84;76.62;18976.59;5050526;28;20225;-59
2023/02/01 00:53:52;;;;;;;10.23;2.70;;;3.70;99.90;;;-141.84;76.55;18968.47;5052264;28;20189;-60
2023/02/01 00:56:21;;;;;;;10.87;3.37;;;3.70;99.90;;;-141.84;76.64;18998.94;5051610;28;20226;-61
2023/02/01 00:58:49;;;;;;;7.47;2.83;;;3.70;99.90;;;-141.84;76.06;18984.72;5051991;28;20226;-59
2023/02/01 01:01:21;;;;;;;6.37;2.60;;;3.80;99.90;;;-141.84;74.82;19017.25;5033042;28;20235;-60
2023/02/01 01:03:54;;;;;;;8.03;2.50;;;3.90;99.90;;;-141.84;74.36;19000.97;5051634;28;20670;-60
2023/02/01 01:06:25;;;;;;;10.87;2.80;;;3.90;99.90;;;-141.84;74.98;19029.44;5040260;28;20698;-59
2023/02/01 01:08:55;;;;;;;8.43;2.87;;;3.90;99.90;;;-141.84;74.43;19043.66;5031930;28;20221;-60
2023/02/01 01:11:26;;;;;;;7.50;2.70;;;4.00;99.90;;;-141.84;74.45;19029.44;5031261;28;20260;-60
2023/02/01 01:13:57;;;;;;;10.67;3.20;;;4.00;99.90;;;-141.84;75.03;18978.63;5031714;28;20251;-60
2023/02/01 01:16:29;;;;;;;6.73;3.20;;;3.90;99.90;;;-141.84;75.08;19009.09;5031005;28;20235;-60
2023/02/01 01:18:58;;;;;;;8.93;2.53;;;3.90;99.90;;;-141.84;75.40;18998.94;5031463;28;20231;-60
2023/02/01 01:21:27;;;;;;;7.57;2.93;;;3.90;99.90;;;-141.84;75.69;19013.16;5031576;28;20305;-61
2023/02/01 01:23:56;;;;;;;6.33;3.10;;;3.80;99.90;;;-141.84;75.81;18972.53;5031803;28;20207;-61
2023/02/01 01:26:28;;;;;;;10.10;3.00;;;3.90;99.90;;;-141.84;75.40;19005.03;5031532;28;20214;-60
2023/02/01 01:28:58;;;;;;;9.60;3.37;;;3.90;99.90;;;-141.84;75.49;18990.81;5042955;28;20273;-60
2023/02/01 01:31:27;;;;;;;11.27;2.97;;;3.90;99.90;;;-141.84;75.75;18996.91;5030735;28;20236;-60
2023/02/01 01:34:00;;;;;;;9.90;3.40;;;3.90;99.90;;;-141.84;75.72;18990.81;5031021;28;20225;-61
2023/02/01 01:36:30;;;;;;;7.83;3.57;;;3.90;99.90;;;-141.84;76.12;18988.78;5031072;28;20239;-60
2023/02/01 01:38:58;;;;;;;9.73;3.70;;;4.00;99.90;;;-141.84;76.46;19003.00;5032911;28;20191;-60
2023/02/01 01:41:32;;;;;;;10.00;3.70;;;4.00;99.90;;;-141.84;76.91;18944.09;5031270;28;20217;-61
2023/02/01 01:44:04;;;;;;;9.87;3.30;;;3.90;99.90;;;-141.84;76.61;19015.19;5030909;28;20621;-60
2023/02/01 01:46:35;;;;;;;7.47;3.50;;;4.00;99.90;;;-141.84;75.94;18994.88;5030575;28;20238;-60
2023/02/01 01:49:12;;;;;;;12.07;3.97;;;4.00;99.90;;;-141.84;77.04;18986.75;5030725;28;20232;-60
2023/02/01 01:51:48;;;;;;;7.00;3.80;;;4.00;99.90;;;-141.84;76.24;18996.91;5044743;28;20744;-61
2023/02/01 01:54:22;;;;;;;6.30;3.30;;;4.00;99.90;;;-141.84;76.55;18988.78;5050712;28;20192;-60
2023/02/01 01:57:00;;;;;;;8.47;3.60;;;4.00;99.90;;;-141.84;76.26;19013.16;5050852;28;20195;-60
2023/02/01 01:59:29;;;;;;;8.73;3.23;;;4.00;99.90;;;-141.84;76.44;18980.66;5050784;28;20233;-60
2023/02/01 02:01:57;;;;;;;9.77;3.67;;;3.90;99.90;;;-141.84;76.06;19019.28;5043216;28;20228;-60
2023/02/01 02:04:27;;;;;;;7.70;3.50;;;3.90;99.90;;;-141.84;75.79;18988.78;5030329;28;20677;-61
2023/02/01 02:07:03;;;;;;;9.87;3.67;;;4.00;99.90;;;-141.84;75.03;18972.53;5044582;28;20496;-60
2023/02/01 02:09:31;;;;;;;10.03;3.57;;;4.00;99.90;;;-141.84;75.97;19029.44;5050214;28;20245;-60
2023/02/01 02:11:59;;;;;;;7.90;3.50;;;4.00;99.90;;;-141.84;76.05;18986.75;5050293;28;20209;-62
2023/02/01 02:14:29;;;;;;;9.57;3.50;;;3.90;99.90;;;-141.84;75.58;19003.00;5050456;28;20204;-60
2023/02/01 02:17:22;;;;;;;8.30;4.17;;;4.00;99.90;;;-141.84;76.10;18974.56;5049853;28;20230;-60
2023/02/01 02:20:31;;;;;;;9.00;3.70;;;3.90;99.90;;;-141.84;75.73;19011.13;5050141;28;20219;-59
2023/02/01 02:23:40;;;;;;;10.13;3.90;;;4.00;99.90;;;-141.84;74.84;19007.06;5049889;28;20227;-59
2023/02/01 02:26:56;;;;;;;13.17;3.53;;;4.00;99.90;;;-141.84;75.06;19000.97;5049852;28;20623;-60
2023/02/01 02:30:12;;;;;;;7.07;3.20;;;4.00;99.90;;;-141.84;75.10;18988.78;5026978;28;20225;-60
2023/02/01 02:33:31;;;;;;;7.63;3.40;;;4.10;99.90;;;-141.84;74.23;19023.34;5049765;28;20227;-60
2023/02/01 02:36:06;;;;;;;6.90;3.10;;;4.10;99.90;;;-141.84;74.50;19031.47;5042718;28;20229;-59
2023/02/01 02:38:45;;;;;;;5.73;3.23;;;4.10;99.90;;;-141.84;74.16;19057.88;5030387;28;20188;-65
2023/02/01 02:47:27;;;;;;;8.10;3.43;;;4.10;99.90;;;-141.84;74.47;18984.72;5029560;28;20601;-65
2023/02/01 03:04:17;;;;;;;11.37;3.87;;;4.10;99.90;;;-141.84;75.01;18990.81;5029712;28;20224;-66
2023/02/01 03:06:47;;;;;;;5.93;3.20;;;4.10;99.90;;;-141.84;74.45;19017.25;5029806;28;20233;-66
2023/02/01 03:09:23;;;;;;;5.93;3.50;;;4.10;99.90;;;-141.84;74.12;19033.50;5029583;28;20229;-65
2023/02/01 03:14:53;;;;;;;10.60;3.23;;;4.20;99.90;;;-141.84;74.08;19029.44;5031270;28;20241;-66
2023/02/01 03:17:33;;;;;;;8.90;3.57;;;4.30;99.90;;;-141.84;73.68;19035.53;5033339;28;20233;-66
2023/02/01 03:20:06;;;;;;;10.50;3.57;;;4.30;99.90;;;-141.84;73.78;19035.53;5033349;28;20232;-67
2023/02/01 03:22:39;;;;;;;7.90;3.70;;;4.30;99.90;;;-141.84;73.31;19047.72;5053421;28;20259;-65
2023/02/01 03:25:14;;;;;;;9.03;3.30;;;4.40;99.90;;;-141.84;73.50;19063.97;5053486;28;20585;-66
2023/02/01 03:27:50;;;;;;;7.87;3.30;;;4.40;99.90;;;-141.84;73.41;19057.88;5053583;28;20231;-65
2023/02/01 03:30:23;;;;;;;8.70;3.20;;;4.40;99.90;;;-141.84;72.20;19088.34;5053041;28;20559;-65
2023/02/01 03:32:59;;;;;;;12.47;3.00;;;4.50;99.90;;;-141.84;72.06;19049.75;5041240;28;20232;-64
2023/02/01 03:35:37;;;;;;;9.00;3.53;;;4.50;99.90;;;-141.84;72.08;19070.06;5033575;28;20202;-66
2023/02/01 03:38:20;;;;;;;11.90;4.10;;;4.60;99.90;;;-141.84;72.10;19102.56;5033176;28;20614;-65
2023/02/01 03:40:58;;;;;;;9.77;3.30;;;4.60;99.90;;;-141.84;71.62;19080.22;5032893;28;20242;-64
2023/02/01 03:43:35;;;;;;;7.97;3.00;;;4.60;99.90;;;-141.84;71.97;19068.03;5032859;28;20236;-65
2023/02/01 03:46:10;;;;;;;7.37;3.33;;;4.60;99.90;;;-141.84;71.83;19076.16;5032863;28;20232;-64
2023/02/01 03:48:41;;;;;;;11.27;3.80;;;4.60;99.90;;;-141.84;72.05;19104.59;5032888;28;20254;-65
2023/02/01 03:51:11;;;;;;;10.90;3.53;;;4.60;99.90;;;-141.84;71.57;19102.56;5042836;28;20216;-65
2023/02/01 03:53:45;;;;;;;8.07;3.20;;;4.60;99.90;;;-141.84;71.47;19051.78;5053321;28;20189;-65
2023/02/01 03:56:14;;;;;;;12.93;3.50;;;4.60;99.90;;;-141.84;71.99;19080.22;5052593;28;20235;-65
2023/02/01 03:58:57;;;;;;;5.73;3.70;;;4.50;99.90;;;-141.84;72.43;19088.34;5052885;28;20238;-65
2023/02/01 04:01:28;;;;;;;9.50;3.53;;;4.50;99.90;;;-141.84;72.27;19059.91;5046132;28;20233;-65
2023/02/01 04:03:58;;;;;;;11.43;3.93;;;4.50;99.90;;;-141.84;71.94;19051.78;5052886;28;20711;-64
2023/02/01 04:06:27;;;;;;;8.10;3.53;;;4.50;99.90;;;-141.84;71.33;19049.75;5053346;28;20225;-65
2023/02/01 04:08:56;;;;;;;11.20;4.17;;;4.50;99.90;;;-141.84;72.09;19076.16;5053641;28;20212;-64
2023/02/01 04:11:24;;;;;;;6.80;3.00;;;4.50;99.90;;;-141.84;71.88;19070.06;5053382;28;20233;-64
2023/02/01 04:13:52;;;;;;;11.93;3.77;;;4.50;99.90;;;-141.84;71.23;19084.28;5052521;28;20229;-65
2023/02/01 04:16:21;;;;;;;11.23;4.00;;;4.50;99.90;;;-141.84;71.12;19082.25;5052081;28;20232;-65
2023/02/01 04:18:49;;;;;;;9.10;3.53;;;4.50;99.90;;;-141.84;71.19;19100.53;5052706;28;20310;-64
2023/02/01 04:21:17;;;;;;;13.50;3.53;;;4.50;99.90;;;-141.84;71.06;19102.56;5052718;28;20203;-64
2023/02/01 04:23:45;;;;;;;8.87;3.47;;;4.50;99.90;;;-141.84;71.50;19086.31;5053341;28;20201;-65
2023/02/01 04:26:16;;;;;;;8.10;2.80;;;4.50;99.90;;;-141.84;71.32;19070.06;5052370;28;20273;-65
2023/02/01 04:28:44;;;;;;;12.20;3.83;;;4.50;99.90;;;-141.84;71.41;19086.31;5043278;28;20279;-64
2023/02/01 04:31:12;;;;;;;5.63;3.20;;;4.50;99.90;;;-141.84;71.15;19094.44;5032318;28;20237;-64
2023/02/01 04:33:40;;;;;;;8.90;3.23;;;4.50;99.90;;;-141.84;71.04;19096.47;5032885;28;20295;-64
2023/02/01 04:36:09;;;;;;;6.63;3.27;;;4.50;99.90;;;-141.84;70.78;19078.19;5032421;28;20227;-64
2023/02/01 04:38:37;;;;;;;10.17;2.93;;;4.60;99.90;;;-141.84;71.48;19070.06;5032754;28;20684;-66
2023/02/01 04:41:06;;;;;;;9.70;3.17;;;4.50;99.90;;;-141.84;71.74;19068.03;5051672;28;20240;-64
2023/02/01 04:43:35;;;;;;;9.13;3.40;;;4.50;99.90;;;-141.84;71.32;19066.00;5052132;28;20235;-65
2023/02/01 04:46:04;;;;;;;7.63;3.23;;;4.50;99.90;;;-141.84;71.11;19086.31;5051940;28;20224;-66
2023/02/01 04:48:32;;;;;;;8.50;3.47;;;4.50;99.90;;;-141.84;70.72;19078.19;5051992;28;20225;-65
2023/02/01 04:51:00;;;;;;;10.03;3.03;;;4.50;99.90;;;-141.84;70.50;19094.44;5051663;28;20226;-64
2023/02/01 04:53:29;;;;;;;11.70;3.40;;;4.50;99.90;;;-141.84;70.40;19135.09;5052713;28;20204;-64
2023/02/01 04:55:57;;;;;;;9.07;3.07;;;4.60;99.90;;;-141.84;70.23;19102.56;5051912;28;20238;-64
2023/02/01 04:58:25;;;;;;;7.10;3.30;;;4.60;99.90;;;-141.84;70.81;19072.09;5052102;28;20233;-65
2023/02/01 05:00:55;;;;;;;9.50;3.33;;;4.60;99.90;;;-141.84;70.29;19084.28;5036031;28;20225;-64
2023/02/01 05:03:23;;;;;;;8.53;3.40;;;4.60;99.90;;;-141.84;69.86;19151.34;5050185;28;20266;-64
2023/02/01 05:05:53;;;;;;;10.73;3.10;;;4.60;99.90;;;-141.84;70.59;19094.44;5052149;28;20613;-66
2023/02/01 05:08:22;;;;;;;8.97;3.57;;;4.60;99.90;;;-141.84;70.62;19110.72;5051716;28;20235;-64
2023/02/01 05:10:50;;;;;;;10.37;3.60;;;4.50;99.90;;;-141.84;70.82;19106.66;5051336;28;20308;-65
2023/02/01 05:16:06;;;;;;;12.30;3.50;;;4.50;99.90;;;-141.84;70.93;19108.69;5050995;28;20227;-65
2023/02/01 05:18:34;;;;;;;9.67;3.70;;;4.50;99.90;;;-141.84;71.22;19096.47;5051605;28;20271;-65
2023/02/01 05:21:03;;;;;;;11.90;3.73;;;4.40;99.90;;;-141.84;71.01;19112.75;5051268;28;20251;-64
2023/02/01 05:23:31;;;;;;;9.40;3.80;;;4.50;99.90;;;-141.84;70.99;19106.66;5051817;28;20585;-65
2023/02/01 05:26:02;;;;;;;9.27;3.70;;;4.50;99.90;;;-141.84;71.48;19049.75;5033840;28;20237;-64
2023/02/01 05:28:31;;;;;;;7.27;3.40;;;4.50;99.90;;;-141.84;71.28;19104.59;5031418;28;20875;-66
2023/02/01 05:30:59;;;;;;;8.60;3.97;;;4.50;99.90;;;-141.84;71.20;19114.78;5030799;28;20233;-65
2023/02/01 05:33:30;;;;;;;8.57;3.70;;;4.50;99.90;;;-141.84;70.90;19135.09;5031532;28;20283;-66
2023/02/01 05:35:59;;;;;;;8.63;3.30;;;4.50;99.90;;;-141.84;70.94;19104.59;5031583;28;20193;-65
2023/02/01 05:38:27;;;;;;;9.27;3.87;;;4.50;99.90;;;-141.84;71.64;19082.25;5031041;28;20228;-64
2023/02/01 05:40:55;;;;;;;9.87;3.83;;;4.50;99.90;;;-141.84;71.90;19053.81;5049744;28;20228;-65
2023/02/01 05:43:23;;;;;;;8.73;3.73;;;4.40;99.90;;;-141.84;72.41;19057.88;5051524;28;20233;-65
2023/02/01 05:45:53;;;;;;;7.60;4.07;;;4.40;99.90;;;-141.84;72.82;19053.81;5050999;28;20239;-65
2023/02/01 05:48:21;;;;;;;5.97;3.83;;;4.30;99.90;;;-141.84;73.06;19053.81;5035212;28;20224;-66
2023/02/01 05:50:51;;;;;;;9.43;3.93;;;4.20;99.90;;;-141.84;72.81;19066.00;5039155;28;20339;-64
2023/02/01 05:53:19;;;;;;;11.83;3.70;;;4.30;99.90;;;-141.84;72.77;19080.22;5051079;28;20232;-65
2023/02/01 05:55:47;;;;;;;10.10;3.63;;;4.30;99.90;;;-141.84;72.83;19049.75;5050946;28;20242;-67
2023/02/01 05:58:15;;;;;;;13.20;3.90;;;4.30;99.90;;;-141.84;72.73;19021.31;5050905;28;20239;-65
2023/02/01 06:00:43;;;;;;;10.93;4.10;;;4.40;99.90;;;-141.84;72.77;19076.16;5050674;28;20735;-66
2023/02/01 06:03:11;;;;;;;7.63;3.90;;;4.40;99.90;;;-141.84;72.14;19086.31;5051153;28;20208;-66
2023/02/01 06:05:39;;;;;;;7.60;3.30;;;4.50;99.90;;;-141.84;71.95;19078.19;5051325;28;20562;-64
2023/02/01 06:08:11;;;;;;;10.57;4.10;;;4.50;99.90;;;-141.84;72.04;19059.91;5050496;28;20232;-65
2023/02/01 06:10:39;;;;;;;8.10;3.67;;;4.50;99.90;;;-141.84;72.15;19094.44;5050399;28;20228;-65
2023/02/01 06:13:08;;;;;;;7.83;3.47;;;4.50;99.90;;;-141.84;72.34;19102.56;5050762;28;20232;-65
2023/02/01 06:15:37;;;;;;;5.20;3.43;;;4.50;99.90;;;-141.84;72.60;19088.34;5050033;28;20238;-64
2023/02/01 06:18:05;;;;;;;8.37;3.13;;;4.60;99.90;;;-141.84;72.69;19072.09;5050467;28;20209;-65
2023/02/01 06:20:33;;;;;;;8.07;3.70;;;4.60;99.90;;;-141.84;72.27;19108.69;5047391;28;20209;-65
2023/02/01 06:23:01;;;;;;;10.57;3.53;;;4.60;99.90;;;-141.84;72.30;19112.75;5030386;28;20229;-64
2023/02/01 06:25:31;;;;;;;9.20;3.63;;;4.60;99.90;;;-141.84;72.27;19102.56;5030779;28;20229;-66
2023/02/01 06:28:01;;;;;;;7.57;3.43;;;4.60;99.90;;;-141.84;71.81;19122.91;5030286;28;20544;-64
2023/02/01 06:30:30;;;;;;;9.30;3.90;;;4.60;99.90;;;-141.84;71.48;19147.28;5030194;28;20314;-65
2023/02/01 06:32:58;;;;;;;7.77;3.60;;;4.70;99.90;;;-141.84;71.88;19104.59;5030798;28;20208;-64
2023/02/01 06:35:26;;;;;;;8.13;3.43;;;4.60;99.90;;;-141.84;72.05;19108.69;5030706;28;20236;-65
2023/02/01 06:37:54;;;;;;;10.43;3.70;;;4.60;99.90;;;-141.84;72.29;19055.84;5029902;28;20225;-64
2023/02/01 06:40:22;;;;;;;7.80;3.40;;;4.50;99.90;;;-141.84;72.08;19108.69;5044155;28;20236;-65
2023/02/01 06:42:52;;;;;;;8.83;3.30;;;4.60;99.90;;;-141.84;71.57;19084.28;5047584;28;20231;-66
2023/02/01 06:45:20;;;;;;;6.77;3.50;;;4.70;99.90;;;-141.84;71.68;19100.53;5030117;28;20224;-65
2023/02/01 06:47:49;;;;;;;11.00;3.70;;;4.60;99.90;;;-141.84;71.54;19112.75;5041449;28;20697;-66
2023/02/01 06:50:17;;;;;;;7.43;3.97;;;4.60;99.90;;;-141.84;71.43;19120.88;5049221;28;20235;-65
2023/02/01 06:52:45;;;;;;;9.47;3.93;;;4.70;99.90;;;-141.84;71.69;19074.13;5049542;28;20247;-65
2023/02/01 06:55:13;;;;;;;9.60;3.87;;;4.70;99.90;;;-141.84;71.41;19133.06;5049942;28;20225;-66
2023/02/01 06:57:41;;;;;;;8.23;4.00;;;4.70;99.90;;;-141.84;71.01;19116.81;5049961;28;20224;-67
2023/02/01 07:00:13;;;;;;;7.77;3.53;;;4.70;99.90;;;-141.84;70.69;19122.91;5040739;28;20204;-65
2023/02/01 07:02:41;;;;;;;8.83;3.40;;;4.80;99.90;;;-141.84;70.45;19129.00;5031065;28;20563;-66
2023/02/01 07:05:10;;;;;;;9.40;4.20;;;4.90;99.90;;;-141.84;70.55;19135.09;5031101;28;20286;-65
2023/02/01 07:07:38;;;;;;;10.87;3.90;;;4.90;99.90;;;-141.84;70.44;19135.09;5049465;28;20229;-66
2023/02/01 07:10:07;;;;;;;11.17;4.40;;;4.90;99.90;;;-141.84;70.88;19135.09;5049797;28;20282;-65
2023/02/01 07:12:35;;;;;;;8.57;3.40;;;4.90;99.90;;;-141.84;70.28;19120.88;5049544;28;20239;-65
2023/02/01 07:15:04;;;;;;;7.07;3.70;;;4.90;99.90;;;-141.84;69.62;19129.00;5049244;28;20343;-66
2023/02/01 07:17:34;;;;;;;9.47;3.70;;;5.00;99.90;;;-141.84;69.92;19139.16;5050078;28;20193;-67
2023/02/01 07:20:02;;;;;;;11.87;3.43;;;5.00;99.90;;;-141.84;69.76;19155.41;5049607;28;20236;-66
2023/02/01 07:22:30;;;;;;;8.70;4.20;;;5.00;99.90;;;-141.84;69.54;19096.47;5049162;28;20712;-65
2023/02/01 07:24:59;;;;;;;8.00;3.70;;;5.00;99.90;;;-141.84;69.73;19141.19;5047674;28;20216;-65
2023/02/01 07:27:27;;;;;;;7.83;3.50;;;5.00;99.90;;;-141.84;70.08;19129.00;5049517;28;20232;-67
2023/02/01 07:30:01;;;;;;;9.00;3.30;;;5.00;99.90;;;-141.84;70.06;19139.16;5042621;28;20213;-66
2023/02/01 07:32:30;;;;;;;9.67;3.67;;;5.00;99.90;;;-141.84;70.21;19151.34;5018658;28;20232;-67
2023/02/01 07:34:59;;;;;;;13.83;3.83;;;5.00;99.90;;;-141.84;69.69;19161.50;5029669;28;20233;-65
2023/02/01 07:37:28;;;;;;;8.70;3.60;;;5.10;99.90;;;-141.84;69.06;19167.59;5029253;28;20230;-66
2023/02/01 07:39:56;;;;;;;11.53;3.90;;;5.10;99.90;;;-141.84;69.07;19133.06;5029064;28;20226;-67
2023/02/01 07:42:24;;;;;;;14.40;4.17;;;5.20;99.90;;;-141.84;68.87;19147.28;5029672;28;20236;-66
2023/02/01 07:44:52;;;;;;;9.57;3.97;;;5.30;99.90;;;-141.84;68.71;19163.53;5047620;28;20213;-66
2023/02/01 07:47:20;;;;;;;9.67;3.67;;;5.30;99.90;;;-141.84;68.75;19159.47;5049104;28;20232;-65
2023/02/01 07:49:49;;;;;;;11.17;3.83;;;5.30;99.90;;;-141.84;68.60;19198.09;5049036;28;20225;-65
2023/02/01 07:52:18;;;;;;;7.90;4.20;;;5.30;99.90;;;-141.84;68.42;19183.84;5048890;28;20233;-65
2023/02/01 07:54:46;;;;;;;10.33;4.07;;;5.40;99.90;;;-141.84;68.54;19185.88;5048884;28;20247;-67
2023/02/01 07:57:14;;;;;;;9.03;3.67;;;5.40;99.90;;;-141.84;68.66;19189.97;5049274;28;20205;-66
2023/02/01 08:02:24;;;;;;;5.87;3.27;;;5.40;99.90;;;-141.84;68.13;19212.31;5052041;28;20232;-66
2023/02/01 08:04:53;;;;;;;9.50;3.80;;;5.50;99.90;;;-141.84;68.33;19175.72;5052523;28;20283;-66
2023/02/01 08:07:22;;;;;;;9.23;3.90;;;5.40;99.90;;;-141.84;68.64;19192.00;5052497;28;20236;-65
2023/02/01 08:09:51;;;;;;;7.97;3.60;;;5.40;99.90;;;-141.84;68.89;19187.91;5052507;28;20225;-65
2023/02/01 08:12:19;;;;;;;11.37;3.20;;;5.40;99.90;;;-141.84;69.02;19153.38;5052666;28;20248;-64
2023/02/01 08:14:48;;;;;;;6.20;3.00;;;5.40;99.90;;;-141.84;69.00;19173.69;5052636;28;20233;-66
2023/02/01 08:17:16;;;;;;;7.30;3.93;;;5.40;99.90;;;-141.84;69.13;19181.81;5052361;28;20716;-66
2023/02/01 08:19:44;;;;;;;9.17;3.70;;;5.40;99.90;;;-141.84;69.64;19155.41;5052332;28;20610;-67
2023/02/01 08:22:13;;;;;;;5.97;3.23;;;5.40;99.90;;;-141.84;69.45;19187.91;5052414;28;20229;-67
2023/02/01 08:24:42;;;;;;;7.43;3.17;;;5.40;99.90;;;-141.84;69.69;19143.22;5051973;28;20222;-67
2023/02/01 08:27:12;;;;;;;7.20;3.20;;;5.40;99.90;;;-141.84;69.46;19159.47;5052088;28;20661;-67
2023/02/01 08:29:40;;;;;;;7.67;3.10;;;5.40;99.90;;;-141.84;69.84;19181.81;5052699;28;20205;-67
2023/02/01 08:32:08;;;;;;;10.63;3.30;;;5.40;99.90;;;-141.84;70.74;19171.66;5051648;28;20707;-67
2023/02/01 08:34:36;;;;;;;7.43;3.43;;;5.40;99.90;;;-141.84;71.91;19153.38;5051960;28;20635;-67
2023/02/01 08:37:04;;;;;;;6.43;2.90;;;5.30;99.90;;;-141.84;73.03;19135.09;5035518;28;20303;-69
2023/02/01 08:39:32;;;;;;;4.97;2.97;;;5.20;99.90;;;-141.84;72.82;19135.09;5036999;28;20320;-69
2023/02/01 08:44:48;;;;;;;7.83;3.30;;;5.10;99.90;;;-141.84;75.26;19124.94;5052421;28;20185;-67
2023/02/01 08:47:16;;;;;;;7.60;3.70;;;5.00;99.90;;;-141.84;76.74;19102.56;5051537;28;20236;-67
2023/02/01 08:49:44;;;;;;;8.80;3.70;;;4.90;99.90;;;-141.84;77.74;19055.84;5052039;28;20221;-72
2023/02/01 08:52:12;;;;;;;8.07;3.97;;;4.80;99.90;;;-141.84;78.25;19053.81;5051735;28;20286;-69
2023/02/01 08:54:43;;;;;;;10.10;3.30;;;4.60;99.90;;;-141.84;79.12;19033.50;5051780;28;20232;-68
2023/02/01 08:57:13;;;;;;;8.03;3.40;;;4.50;99.90;;;-141.84;79.70;19049.75;5052251;28;20293;-69
2023/02/01 08:59:41;;;;;;;9.60;3.90;;;4.50;99.90;;;-141.84;80.39;19029.44;5052239;28;20236;-70
2023/02/01 09:02:13;;;;;;;9.87;3.97;;;4.40;99.90;;;-141.84;81.08;19011.13;5043914;28;20237;-69
2023/02/01 09:04:42;;;;;;;7.03;4.00;;;4.30;99.90;;;-141.84;80.92;19025.38;5031915;28;20236;-70
2023/02/01 09:07:12;;;;;;;10.07;4.33;;;4.30;99.90;;;-141.84;80.63;19009.09;5032065;28;20226;-71
2023/02/01 09:09:41;;;;;;;6.30;3.70;;;4.30;99.90;;;-141.84;80.93;19037.56;5031772;28;20218;-70
2023/02/01 09:12:09;;;;;;;9.03;3.53;;;4.40;99.90;;;-141.84;81.48;18994.88;5030750;28;20471;-70
2023/02/01 09:14:38;;;;;;;9.23;4.03;;;4.40;99.90;;;-141.84;81.41;19015.19;5031826;28;20595;-68
2023/02/01 09:17:06;;;;;;;9.97;4.20;;;4.40;99.90;;;-141.84;81.71;19009.09;5031149;28;20235;-65
2023/02/01 09:19:34;;;;;;;9.63;4.23;;;4.40;99.90;;;-141.84;81.82;18974.56;5031222;28;20635;-64
2023/02/01 09:22:03;;;;;;;8.77;3.90;;;4.40;99.90;;;-141.84;81.68;19000.97;5031413;28;20223;-66
2023/02/01 09:24:31;;;;;;;7.47;4.07;;;4.40;99.90;;;-141.84;82.07;18972.53;5031239;28;20237;-65
2023/02/01 09:26:59;;;;;;;8.43;4.20;;;4.40;99.90;;;-141.84;81.54;18982.69;5031740;28;20238;-63
2023/02/01 09:29:28;;;;;;;11.23;4.67;;;4.50;99.90;;;-141.84;81.52;19007.06;5034719;28;20227;-64
2023/02/01 09:31:57;;;;;;;10.93;4.70;;;4.50;99.90;;;-141.84;81.84;19015.19;5050565;28;20593;-65
2023/02/01 09:34:31;;;;;;;9.43;4.53;;;4.50;99.90;;;-141.84;81.27;19009.09;5050883;28;20307;-64
2023/02/01 09:37:00;;;;;;;11.27;4.50;;;4.50;99.90;;;-141.84;81.16;19029.44;5050756;28;20278;-64
2023/02/01 09:39:29;;;;;;;10.80;4.33;;;4.60;99.90;;;-141.84;81.83;19009.09;5048754;28;20228;-64
2023/02/01 09:42:17;;;;;;;9.37;4.67;;;4.60;99.90;;;-141.84;81.09;19049.75;5051386;28;20201;-65
2023/02/01 09:45:15;;;;;;;10.37;4.20;;;4.70;99.90;;;-141.84;80.04;19041.63;5050848;28;20234;-66
2023/02/01 09:47:52;;;;;;;10.90;4.17;;;4.80;99.90;;;-141.84;80.12;19066.00;5050768;28;20224;-64
2023/02/01 09:50:29;;;;;;;11.53;4.03;;;5.00;99.90;;;-141.84;78.64;19086.31;5047529;28;20243;-63
2023/02/01 09:53:02;;;;;;;11.70;4.43;;;5.20;99.90;;;-141.84;78.30;19098.50;5030604;28;20232;-63
2023/02/01 09:55:41;;;;;;;11.47;4.00;;;5.30;99.90;;;-141.84;77.98;19106.66;5045011;28;20315;-64
2023/02/01 09:58:17;;;;;;;9.30;4.27;;;5.40;99.90;;;-141.84;78.38;19070.06;5050373;28;20235;-69
2023/02/01 10:00:53;;;;;;;8.70;3.37;;;5.40;99.90;;;-141.84;77.23;19098.50;5036279;28;20228;-69
2023/02/01 10:03:27;;;;;;;10.10;4.17;;;5.50;99.90;;;-141.84;76.68;19108.69;5030840;28;20229;-69
2023/02/01 10:06:25;;;;;;;9.07;3.87;;;5.50;99.90;;;-141.84;76.33;19135.09;5030753;28;20189;-68
2023/02/01 10:09:16;;;;;;;8.77;4.17;;;5.50;99.90;;;-141.84;75.43;19118.84;5030951;28;20236;-68
2023/02/01 10:12:20;;;;;;;8.03;3.83;;;5.60;99.90;;;-141.84;75.24;19163.53;5031024;28;20185;-69
2023/02/01 10:15:03;;;;;;;7.00;3.77;;;5.70;99.90;;;-141.84;75.24;19163.53;5030249;28;20727;-69
2023/02/01 10:17:56;;;;;;;8.00;4.00;;;5.90;99.90;;;-141.84;74.21;19155.41;5030560;28;20224;-68
2023/02/01 10:20:49;;;;;;;8.23;3.73;;;5.90;99.90;;;-141.84;74.45;19159.47;5030519;28;20226;-69
2023/02/01 10:23:51;;;;;;;9.57;3.60;;;5.90;99.90;;;-141.84;74.13;19159.47;5029965;28;20229;-65
2023/02/01 10:26:22;;;;;;;9.27;4.30;;;6.00;99.90;;;-141.84;73.25;19161.50;5029931;28;20225;-65
2023/02/01 10:28:54;;;;;;;10.53;4.07;;;6.00;99.90;;;-141.84;72.18;19189.97;5029927;28;20226;-64
2023/02/01 10:31:27;;;;;;;9.30;4.00;;;6.20;99.90;;;-141.84;71.59;19194.03;5048855;28;20300;-65
2023/02/01 10:33:59;;;;;;;8.80;3.87;;;6.20;99.90;;;-141.84;71.99;19202.16;5049826;28;20229;-67
2023/02/01 10:36:35;;;;;;;6.53;3.23;;;6.20;99.90;;;-141.84;71.17;19173.69;5050075;28;20225;-66
2023/02/01 10:39:07;;;;;;;9.57;3.50;;;6.30;99.90;;;-141.84;71.24;19208.25;5047766;28;20563;-64
2023/02/01 10:41:39;;;;;;;11.67;3.73;;;6.30;99.90;;;-141.84;70.40;19222.47;5050529;28;20194;-63
2023/02/01 10:44:14;;;;;;;9.47;3.60;;;6.40;99.90;;;-141.84;70.03;19252.94;5049938;28;20225;-65
2023/02/01 10:46:43;;;;;;;8.40;3.10;;;6.40;99.90;;;-141.84;69.43;19228.56;5049385;28;20221;-67
2023/02/01 10:49:19;;;;;;;8.27;3.80;;;6.40;99.90;;;-141.84;69.20;19208.25;5049778;28;20755;-66
2023/02/01 10:51:55;;;;;;;8.47;2.60;;;6.40;99.90;;;-141.84;67.88;19220.44;5049409;28;20603;-65
2023/02/01 10:54:34;;;;;;;8.77;2.63;;;6.40;99.90;;;-141.84;66.58;19257.00;5049890;28;20240;-65
2023/02/01 10:57:02;;;;;;;7.27;2.70;;;6.60;99.90;;;-141.84;65.88;19269.22;5049763;28;20186;-66
2023/02/01 10:59:32;;;;;;;5.97;2.60;;;6.70;99.90;;;-141.84;65.34;19291.56;5046502;28;20236;-66
2023/02/01 11:02:06;;;;;;;4.77;2.37;;;6.70;99.90;;;-141.84;65.81;19320.00;5029413;28;20258;-64